createdAt,value
2023-03-11T00:02:24.781Z,63.70
2023-03-11T00:04:51.381Z,62.11
2023-03-11T00:07:17.913Z,62.06
2023-03-11T00:09:44.431Z,61.77
2023-03-11T00:12:10.893Z,61.28
2023-03-11T00:14:37.435Z,62.25
2023-03-11T00:17:04.011Z,63.13
2023-03-11T00:19:30.529Z,63.51
2023-03-11T00:21:58.022Z,64.32
2023-03-11T00:24:24.552Z,63.78
2023-03-11T00:26:51.067Z,63.40
2023-03-11T00:29:17.626Z,63.41
2023-03-11T00:31:44.480Z,65.06
2023-03-11T00:34:11.028Z,64.47
2023-03-11T00:36:37.640Z,63.94
2023-03-11T00:39:08.256Z,64.19
2023-03-11T00:41:35.179Z,64.20
2023-03-11T00:44:01.681Z,64.95
2023-03-11T00:46:29.859Z,65.20
2023-03-11T00:48:58.882Z,65.04
2023-03-11T00:51:28.215Z,64.52
2023-03-11T00:53:57.894Z,64.87
2023-03-11T00:56:24.458Z,64.45
2023-03-11T00:58:50.935Z,63.70
2023-03-11T01:01:19.447Z,64.29
2023-03-11T01:03:46.799Z,65.13
2023-03-11T01:06:13.595Z,64.45
2023-03-11T01:08:40.557Z,64.77
2023-03-11T01:11:08.821Z,63.97
2023-03-11T01:13:35.878Z,63.88
2023-03-11T01:16:03.185Z,64.26
2023-03-11T01:18:29.792Z,64.17
2023-03-11T01:20:56.323Z,64.42
2023-03-11T01:23:22.960Z,64.39
2023-03-11T01:25:49.559Z,63.59
2023-03-11T01:28:18.105Z,63.41
2023-03-11T01:30:45.406Z,63.19
2023-03-11T01:33:17.651Z,64.12
2023-03-11T01:35:45.046Z,64.62
2023-03-11T01:38:15.353Z,63.58
2023-03-11T01:40:45.363Z,63.76
2023-03-11T01:43:39.924Z,63.74
2023-03-11T01:46:09.276Z,62.97
2023-03-11T01:48:35.960Z,61.95
2023-03-11T01:51:02.594Z,62.05
2023-03-11T01:53:29.401Z,62.15
2023-03-11T01:55:55.974Z,61.03
2023-03-11T01:58:28.616Z,61.18
2023-03-11T02:01:00.514Z,60.90
2023-03-11T02:03:33.840Z,60.81
2023-03-11T02:06:07.703Z,60.13
2023-03-11T02:08:36.805Z,59.45
2023-03-11T02:11:08.047Z,59.85
2023-03-11T02:13:36.329Z,59.04
2023-03-11T02:16:03.656Z,57.58
2023-03-11T02:18:30.587Z,55.53
2023-03-11T02:21:26.861Z,54.71
2023-03-11T02:23:53.379Z,54.74
2023-03-11T02:26:28.276Z,52.96
2023-03-11T02:28:56.174Z,52.83
2023-03-11T02:31:23.951Z,53.84
2023-03-11T02:33:54.151Z,52.64
2023-03-11T02:36:46.809Z,50.75
2023-03-11T02:39:13.389Z,51.34
2023-03-11T02:41:44.076Z,52.71
2023-03-11T02:44:13.798Z,52.69
2023-03-11T02:46:42.678Z,51.65
2023-03-11T02:49:10.239Z,51.56
2023-03-11T02:51:36.804Z,50.29
2023-03-11T02:54:05.723Z,50.67
2023-03-11T02:56:32.563Z,50.10
2023-03-11T02:58:59.269Z,50.95
2023-03-11T03:01:25.896Z,50.77
2023-03-11T03:03:52.648Z,50.09
2023-03-11T03:06:19.411Z,50.99
2023-03-11T03:08:47.089Z,50.08
2023-03-11T03:11:13.896Z,49.31
2023-03-11T03:13:40.449Z,50.64
2023-03-11T03:16:09.990Z,52.78
2023-03-11T03:18:37.511Z,53.72
2023-03-11T03:21:04.902Z,55.57
2023-03-11T03:23:37.682Z,55.97
2023-03-11T03:26:05.701Z,57.28
2023-03-11T03:28:32.966Z,57.05
2023-03-11T03:31:07.837Z,58.96
2023-03-11T03:33:34.310Z,61.68
2023-03-11T03:36:01.035Z,61.37
2023-03-11T03:38:27.640Z,58.74
2023-03-11T03:40:54.205Z,59.05
2023-03-11T03:43:20.766Z,60.95
2023-03-11T03:45:58.014Z,61.14
2023-03-11T03:48:24.845Z,60.23
2023-03-11T03:50:51.503Z,60.58
2023-03-11T03:53:18.206Z,59.50
2023-03-11T03:55:44.714Z,59.65
2023-03-11T03:58:11.272Z,60.72
2023-03-11T04:00:37.902Z,59.09
2023-03-11T04:03:07.014Z,58.37
2023-03-11T04:05:33.856Z,58.98
2023-03-11T04:08:00.712Z,58.37
2023-03-11T04:10:27.740Z,59.24
2023-03-11T04:12:54.238Z,60.49
2023-03-11T04:15:20.892Z,58.39
2023-03-11T04:17:47.445Z,58.51
2023-03-11T04:20:13.993Z,59.28
2023-03-11T04:22:40.567Z,57.37
2023-03-11T04:25:07.692Z,58.73
2023-03-11T04:27:34.310Z,54.28
2023-03-11T04:30:00.870Z,54.63
2023-03-11T04:32:27.473Z,54.10
2023-03-11T04:34:54.005Z,53.15
2023-03-11T04:37:20.595Z,53.21
2023-03-11T04:39:47.173Z,52.77
2023-03-11T04:42:14.120Z,54.31
2023-03-11T04:44:40.669Z,53.01
2023-03-11T04:47:07.365Z,52.64
2023-03-11T04:49:33.928Z,52.38
2023-03-11T04:52:00.500Z,52.65
2023-03-11T04:54:27.021Z,52.25
2023-03-11T04:56:53.653Z,50.74
2023-03-11T04:59:20.215Z,52.42
2023-03-11T05:01:46.849Z,53.29
2023-03-11T05:04:13.463Z,55.62
2023-03-11T05:06:40.063Z,55.92
2023-03-11T05:09:06.601Z,56.30
2023-03-11T05:11:33.124Z,58.53
2023-03-11T05:13:59.708Z,57.63
2023-03-11T05:16:26.278Z,58.39
2023-03-11T05:18:52.872Z,59.51
2023-03-11T05:21:19.377Z,59.30
2023-03-11T05:23:45.919Z,60.66
2023-03-11T05:26:12.579Z,61.14
2023-03-11T05:28:39.252Z,60.81
2023-03-11T05:31:10.385Z,60.99
2023-03-11T05:33:37.205Z,60.71
2023-03-11T05:36:09.332Z,59.69
2023-03-11T05:38:36.877Z,60.48
2023-03-11T05:41:03.544Z,59.60
2023-03-11T05:43:30.078Z,61.18
2023-03-11T05:45:56.598Z,61.38
2023-03-11T05:48:23.111Z,61.19
2023-03-11T05:50:49.650Z,61.18
2023-03-11T05:53:16.260Z,60.72
2023-03-11T05:55:42.742Z,63.12
2023-03-11T05:58:09.414Z,64.43
2023-03-11T06:00:36.929Z,65.00
2023-03-11T06:03:03.603Z,64.54
2023-03-11T06:05:30.124Z,64.65
2023-03-11T06:07:56.668Z,65.83
2023-03-11T06:10:23.314Z,66.10
2023-03-11T06:12:52.960Z,66.58
2023-03-11T06:15:19.552Z,67.49
2023-03-11T06:17:48.181Z,66.47
2023-03-11T06:20:14.792Z,67.25
2023-03-11T06:22:41.340Z,68.09
2023-03-11T06:25:08.355Z,68.10
2023-03-11T06:27:37.263Z,68.87
2023-03-11T06:30:04.540Z,69.14
2023-03-11T06:32:31.165Z,68.71
2023-03-11T06:34:57.769Z,69.85
2023-03-11T06:37:25.682Z,69.75
2023-03-11T06:39:56.865Z,69.11
2023-03-11T06:42:26.887Z,69.04
2023-03-11T06:44:53.436Z,67.88
2023-03-11T06:47:19.959Z,67.60
2023-03-11T06:49:46.538Z,68.17
2023-03-11T06:52:13.192Z,69.26
2023-03-11T06:54:40.064Z,68.58
2023-03-11T06:57:10.187Z,69.99
2023-03-11T06:59:37.157Z,69.73
2023-03-11T07:02:05.862Z,69.47
2023-03-11T07:04:33.100Z,69.18
2023-03-11T07:06:59.613Z,67.47
2023-03-11T07:09:27.816Z,70.34
2023-03-11T07:11:54.528Z,69.52
2023-03-11T07:14:21.142Z,70.88
2023-03-11T07:16:47.878Z,70.39
2023-03-11T07:19:15.193Z,69.76
2023-03-11T07:21:42.046Z,70.06
2023-03-11T07:24:11.632Z,70.69
2023-03-11T07:26:38.266Z,70.93
2023-03-11T07:29:05.027Z,71.26
2023-03-11T07:31:34.088Z,71.64
2023-03-11T07:34:04.245Z,71.17
2023-03-11T07:36:31.384Z,71.38
2023-03-11T07:39:03.138Z,71.31
2023-03-11T07:41:33.282Z,71.96
2023-03-11T07:44:00.882Z,69.10
2023-03-11T07:46:28.993Z,72.15
2023-03-11T07:48:56.042Z,71.37
2023-03-11T07:51:26.062Z,70.54
2023-03-11T07:53:54.591Z,69.95
2023-03-11T07:56:23.747Z,71.15
2023-03-11T07:58:51.302Z,71.75
2023-03-11T08:01:20.884Z,71.49
2023-03-11T08:03:50.220Z,72.22
2023-03-11T08:06:22.737Z,73.55
2023-03-11T08:08:50.102Z,71.79
2023-03-11T08:11:17.775Z,70.87
2023-03-11T08:13:46.150Z,69.41
2023-03-11T08:16:15.801Z,72.45
2023-03-11T08:18:42.957Z,71.54
2023-03-11T08:21:12.406Z,70.04
2023-03-11T08:23:38.927Z,70.88
2023-03-11T08:26:07.365Z,71.57
2023-03-11T08:28:34.057Z,71.77
2023-03-11T08:31:01.146Z,70.39
2023-03-11T08:33:31.022Z,71.32
2023-03-11T08:35:57.627Z,70.13
2023-03-11T08:38:24.495Z,70.84
2023-03-11T08:40:51.027Z,70.30
2023-03-11T08:43:17.557Z,70.09
2023-03-11T08:45:44.350Z,69.36
2023-03-11T08:48:11.999Z,69.73
2023-03-11T08:50:53.471Z,68.93
2023-03-11T08:53:21.052Z,69.59
2023-03-11T08:55:47.534Z,69.78
2023-03-11T08:58:14.104Z,69.60
2023-03-11T09:00:40.718Z,69.14
2023-03-11T09:03:07.415Z,70.08
2023-03-11T09:05:34.011Z,70.50
2023-03-11T09:08:00.620Z,67.19
2023-03-11T09:10:27.289Z,67.09
2023-03-11T09:12:53.936Z,67.18
2023-03-11T09:15:20.833Z,67.59
2023-03-11T09:17:47.326Z,69.45
2023-03-11T09:20:15.294Z,67.23
2023-03-11T09:22:41.951Z,66.73
2023-03-11T09:25:11.957Z,66.27
2023-03-11T09:27:38.683Z,66.03
2023-03-11T09:30:06.037Z,66.82
2023-03-11T09:32:32.784Z,65.12
2023-03-11T09:35:00.255Z,66.42
2023-03-11T09:37:27.183Z,65.80
2023-03-11T09:39:53.789Z,66.38
2023-03-11T09:42:31.418Z,65.69
2023-03-11T09:45:03.761Z,66.00
2023-03-11T09:47:46.052Z,66.98
2023-03-11T09:50:20.334Z,67.89
2023-03-11T09:52:59.159Z,67.72
2023-03-11T09:55:41.703Z,66.94
2023-03-11T09:58:43.374Z,67.86
2023-03-11T10:01:18.139Z,69.01
2023-03-11T10:03:45.049Z,68.78
2023-03-11T10:06:22.019Z,70.33
2023-03-11T10:09:26.116Z,68.13
2023-03-11T10:12:20.189Z,68.33
2023-03-11T10:15:22.218Z,67.85
2023-03-11T10:18:13.250Z,68.64
2023-03-11T10:20:52.696Z,70.91
2023-03-11T10:23:49.944Z,70.28
2023-03-11T10:26:33.516Z,71.10
2023-03-11T10:29:21.855Z,69.47
2023-03-11T10:32:17.261Z,74.00
2023-03-11T10:34:50.720Z,70.73
2023-03-11T10:37:24.229Z,72.56
2023-03-11T10:39:51.619Z,73.08
2023-03-11T10:42:27.828Z,71.29
2023-03-11T10:44:54.373Z,71.79
2023-03-11T10:47:24.350Z,71.89
2023-03-11T10:49:52.545Z,70.83
2023-03-11T10:52:20.140Z,71.10
2023-03-11T10:54:58.578Z,71.99
2023-03-11T10:57:36.422Z,73.69
2023-03-11T11:00:17.416Z,72.32
2023-03-11T11:02:53.199Z,72.91
2023-03-11T11:05:22.623Z,72.58
2023-03-11T11:07:53.145Z,70.76
2023-03-11T11:10:27.328Z,70.72
2023-03-11T11:13:03.963Z,71.22
2023-03-11T11:15:35.317Z,70.70
2023-03-11T11:18:03.258Z,70.37
2023-03-11T11:20:30.909Z,70.13
2023-03-11T11:23:00.490Z,69.77
2023-03-11T11:25:35.527Z,69.72
2023-03-11T11:28:15.107Z,69.39
2023-03-11T11:30:54.092Z,69.54
2023-03-11T11:33:30.685Z,68.11
2023-03-11T11:36:01.518Z,68.87
2023-03-11T11:38:30.208Z,67.83
2023-03-11T11:41:01.723Z,67.76
2023-03-11T11:43:49.783Z,68.33
2023-03-11T11:46:21.111Z,67.78
2023-03-11T11:49:05.692Z,68.06
2023-03-11T11:51:37.243Z,66.50
2023-03-11T11:54:30.207Z,66.85
2023-03-11T11:56:58.464Z,66.09
2023-03-11T11:59:25.774Z,65.69
2023-03-11T12:02:11.078Z,66.13
2023-03-11T12:04:48.148Z,66.42
2023-03-11T12:07:26.750Z,67.08
2023-03-11T12:10:21.391Z,66.61
2023-03-11T12:13:13.556Z,66.11
2023-03-11T12:15:46.059Z,66.32
2023-03-11T12:18:35.323Z,66.37
2023-03-11T12:21:12.933Z,67.29
2023-03-11T12:24:13.302Z,67.07
2023-03-11T12:26:46.693Z,66.85
2023-03-11T12:29:37.462Z,66.27
2023-03-11T12:32:04.329Z,67.12
2023-03-11T12:34:35.307Z,66.32
2023-03-11T12:37:03.528Z,67.83
2023-03-11T12:39:33.691Z,65.83
2023-03-11T12:42:22.995Z,65.62
2023-03-11T12:44:50.000Z,67.01
2023-03-11T12:47:23.048Z,65.65
2023-03-11T12:49:55.030Z,64.61
2023-03-11T12:52:26.486Z,64.83
2023-03-11T12:54:59.343Z,64.43
2023-03-11T12:57:35.837Z,63.13
2023-03-11T13:00:26.646Z,62.65
2023-03-11T13:03:05.722Z,62.22
2023-03-11T13:05:44.938Z,62.91
2023-03-11T13:08:36.353Z,62.62
2023-03-11T13:11:34.854Z,62.39
2023-03-11T13:14:33.522Z,63.41
2023-03-11T13:17:30.933Z,63.13
2023-03-11T13:19:59.018Z,62.57
2023-03-11T13:22:58.528Z,62.91
2023-03-11T13:25:42.930Z,62.80
2023-03-11T13:28:29.529Z,61.44
2023-03-11T13:31:35.066Z,61.34
2023-03-11T13:34:13.906Z,62.60
2023-03-11T13:36:52.783Z,62.24
2023-03-11T13:39:31.941Z,61.51
2023-03-11T13:41:58.597Z,60.90
2023-03-11T13:44:29.781Z,59.51
2023-03-11T13:47:23.615Z,59.87
2023-03-11T13:50:26.114Z,60.29
2023-03-11T13:52:55.279Z,58.77
2023-03-11T13:55:28.789Z,59.21
2023-03-11T13:57:57.324Z,59.30
2023-03-11T14:00:28.544Z,58.76
2023-03-11T14:02:57.786Z,58.83
2023-03-11T14:05:33.391Z,58.62
2023-03-11T14:08:24.016Z,57.08
2023-03-11T14:10:55.042Z,57.33
2023-03-11T14:13:23.320Z,57.64
2023-03-11T14:15:58.561Z,57.48
2023-03-11T14:18:29.009Z,57.25
2023-03-11T14:20:56.620Z,56.65
2023-03-11T14:23:30.130Z,57.15
2023-03-11T14:26:02.541Z,56.60
2023-03-11T14:28:33.421Z,57.09
2023-03-11T14:31:02.032Z,57.54
2023-03-11T14:33:29.130Z,55.53
2023-03-11T14:35:58.482Z,55.70
2023-03-11T14:38:28.243Z,56.57
2023-03-11T14:41:05.339Z,55.29
2023-03-11T14:43:41.040Z,55.06
2023-03-11T14:46:08.797Z,55.65
2023-03-11T14:48:41.833Z,55.70
2023-03-11T14:51:19.722Z,55.99
2023-03-11T14:53:53.533Z,55.86
2023-03-11T14:56:24.039Z,53.99
2023-03-11T14:59:09.558Z,55.09
2023-03-11T15:01:42.497Z,54.99
2023-03-11T15:04:26.892Z,53.53
2023-03-11T15:06:55.130Z,53.81
2023-03-11T15:09:24.106Z,53.25
2023-03-11T15:12:01.952Z,52.46
2023-03-11T15:14:35.377Z,51.64
2023-03-11T15:17:37.417Z,51.79
2023-03-11T15:20:37.001Z,51.84
2023-03-11T15:23:06.053Z,51.62
2023-03-11T15:25:35.184Z,52.13
2023-03-11T15:28:38.600Z,50.96
2023-03-11T15:31:20.365Z,50.62
2023-03-11T15:33:47.702Z,50.16
2023-03-11T15:36:33.974Z,51.20
2023-03-11T15:39:18.306Z,51.87
2023-03-11T15:42:06.843Z,50.88
2023-03-11T15:44:36.237Z,50.59
2023-03-11T15:47:06.104Z,50.80
2023-03-11T15:49:33.952Z,50.80
2023-03-11T15:52:00.903Z,51.19
2023-03-11T15:54:27.891Z,50.54
2023-03-11T15:56:57.889Z,51.31
2023-03-11T15:59:24.499Z,50.76
2023-03-11T16:01:51.025Z,50.76
2023-03-11T16:04:19.461Z,51.44
2023-03-11T16:06:56.503Z,51.73
2023-03-11T16:09:31.660Z,52.15
2023-03-11T16:11:58.233Z,51.26
2023-03-11T16:14:24.934Z,51.23
2023-03-11T16:16:51.480Z,51.84
2023-03-11T16:19:18.076Z,51.52
2023-03-11T16:21:49.494Z,52.23
2023-03-11T16:24:20.915Z,52.38
2023-03-11T16:26:47.698Z,53.07
2023-03-11T16:29:19.362Z,52.62
2023-03-11T16:31:47.021Z,52.90
2023-03-11T16:34:13.604Z,52.60
2023-03-11T16:36:40.290Z,52.61
2023-03-11T16:39:06.911Z,52.52
2023-03-11T16:41:44.740Z,52.78
2023-03-11T16:44:12.136Z,52.86
2023-03-11T16:46:38.877Z,52.65
2023-03-11T16:49:05.693Z,53.04
2023-03-11T16:51:32.575Z,53.65
2023-03-11T16:53:59.739Z,53.13
2023-03-11T16:56:26.351Z,54.17
2023-03-11T16:58:52.926Z,53.56
2023-03-11T17:01:21.811Z,53.00
2023-03-11T17:03:50.839Z,54.09
2023-03-11T17:06:17.854Z,53.76
2023-03-11T17:08:49.341Z,53.70
2023-03-11T17:11:22.084Z,53.54
2023-03-11T17:13:50.580Z,53.30
2023-03-11T17:16:17.166Z,53.82
2023-03-11T17:18:43.736Z,53.67
2023-03-11T17:21:13.989Z,54.74
2023-03-11T17:23:41.114Z,54.18
2023-03-11T17:26:15.847Z,54.03
2023-03-11T17:28:43.479Z,54.33
2023-03-11T17:31:14.644Z,56.63
2023-03-11T17:33:41.368Z,56.97
2023-03-11T17:36:11.135Z,56.81
2023-03-11T17:38:37.633Z,57.19
2023-03-11T17:41:08.411Z,56.78
2023-03-11T17:43:35.034Z,57.06
2023-03-11T17:46:02.021Z,56.80
2023-03-11T17:48:28.569Z,57.38
2023-03-11T17:50:55.102Z,57.84
2023-03-11T17:53:21.609Z,57.11
2023-03-11T17:55:48.220Z,56.93
2023-03-11T17:58:14.810Z,57.79
2023-03-11T18:00:41.339Z,56.99
2023-03-11T18:03:07.901Z,57.17
2023-03-11T18:05:36.887Z,57.84
2023-03-11T18:08:03.768Z,58.08
2023-03-11T18:10:30.529Z,58.35
2023-03-11T18:12:57.094Z,58.84
2023-03-11T18:15:24.487Z,58.96
2023-03-11T18:17:51.148Z,60.92
2023-03-11T18:20:17.769Z,64.19
2023-03-11T18:22:46.719Z,63.13
2023-03-11T18:25:14.013Z,62.29
2023-03-11T18:27:40.955Z,61.47
2023-03-11T18:30:08.657Z,60.62
2023-03-11T18:32:35.264Z,59.38
2023-03-11T18:35:01.870Z,58.27
2023-03-11T18:37:32.954Z,59.12
2023-03-11T18:39:59.850Z,61.00
2023-03-11T18:42:26.492Z,60.23
2023-03-11T18:44:53.096Z,59.80
2023-03-11T18:47:19.792Z,59.19
2023-03-11T18:49:46.603Z,59.23
2023-03-11T18:52:13.153Z,59.11
2023-03-11T18:54:39.848Z,58.77
2023-03-11T18:57:06.535Z,59.17
2023-03-11T18:59:33.364Z,59.62
2023-03-11T19:01:59.959Z,59.83
2023-03-11T19:04:28.566Z,60.43
2023-03-11T19:06:55.118Z,59.73
2023-03-11T19:09:24.546Z,59.06
2023-03-11T19:11:51.043Z,59.97
2023-03-11T19:14:17.587Z,60.45
2023-03-11T19:16:44.281Z,60.16
2023-03-11T19:19:12.028Z,60.22
2023-03-11T19:21:38.862Z,60.42
2023-03-11T19:24:05.644Z,60.14
2023-03-11T19:26:44.263Z,60.40
2023-03-11T19:29:12.678Z,59.86
2023-03-11T19:31:39.352Z,60.23
2023-03-11T19:34:05.908Z,59.70
2023-03-11T19:36:32.554Z,59.89
2023-03-11T19:38:59.142Z,60.07
2023-03-11T19:41:25.823Z,59.76
2023-03-11T19:43:52.421Z,60.12
2023-03-11T19:46:23.081Z,60.04
2023-03-11T19:48:49.844Z,61.35
2023-03-11T19:51:17.580Z,63.56
2023-03-11T19:53:44.447Z,64.76
2023-03-11T19:56:14.607Z,66.04
2023-03-11T19:58:42.743Z,65.49
2023-03-11T20:01:16.627Z,66.04
2023-03-11T20:03:43.933Z,65.81
2023-03-11T20:06:11.479Z,65.29
2023-03-11T20:08:38.219Z,69.44
2023-03-11T20:11:06.039Z,71.67
2023-03-11T20:13:34.971Z,75.27
2023-03-11T20:16:10.227Z,73.82
2023-03-11T20:18:37.160Z,75.39
2023-03-11T20:21:08.709Z,73.08
2023-03-11T20:23:35.806Z,73.43
2023-03-11T20:26:12.017Z,72.00
2023-03-11T20:28:38.766Z,71.14
2023-03-11T20:31:09.798Z,69.38
2023-03-11T20:33:37.629Z,69.04
2023-03-11T20:36:08.480Z,68.94
2023-03-11T20:38:35.332Z,67.98
2023-03-11T20:41:05.905Z,68.04
2023-03-11T20:43:33.343Z,68.10
2023-03-11T20:46:03.920Z,68.17
2023-03-11T20:48:31.072Z,67.75
2023-03-11T20:51:06.821Z,67.68
2023-03-11T20:53:33.401Z,68.07
2023-03-11T20:56:10.951Z,67.58
2023-03-11T20:58:38.750Z,68.59
2023-03-11T21:01:23.792Z,67.55
2023-03-11T21:03:53.203Z,67.71
2023-03-11T21:06:22.644Z,67.38
2023-03-11T21:08:49.677Z,67.20
2023-03-11T21:11:17.452Z,66.72
2023-03-11T21:13:44.514Z,66.82
2023-03-11T21:16:11.202Z,66.72
2023-03-11T21:18:38.045Z,66.77
2023-03-11T21:21:08.387Z,66.62
2023-03-11T21:23:36.077Z,65.60
2023-03-11T21:26:05.038Z,65.76
2023-03-11T21:28:34.469Z,66.90
2023-03-11T21:31:06.551Z,66.42
2023-03-11T21:33:33.540Z,66.65
2023-03-11T21:36:01.197Z,66.09
2023-03-11T21:38:28.940Z,66.26
2023-03-11T21:41:06.867Z,66.45
2023-03-11T21:43:33.591Z,66.45
2023-03-11T21:46:00.883Z,66.69
2023-03-11T21:48:27.607Z,65.47
2023-03-11T21:50:54.301Z,66.10
2023-03-11T21:53:20.975Z,66.07
2023-03-11T21:55:47.724Z,66.02
2023-03-11T21:58:14.906Z,65.67
2023-03-11T22:00:41.606Z,66.22
2023-03-11T22:03:08.552Z,66.66
2023-03-11T22:05:35.399Z,66.89
2023-03-11T22:08:02.070Z,66.15
2023-03-11T22:10:28.598Z,66.61
2023-03-11T22:12:55.202Z,65.94
2023-03-11T22:15:21.864Z,66.41
2023-03-11T22:17:48.583Z,67.08
2023-03-11T22:20:15.271Z,66.38
2023-03-11T22:22:41.975Z,66.54
2023-03-11T22:25:08.936Z,66.94
2023-03-11T22:27:35.802Z,66.70
2023-03-11T22:30:02.581Z,66.82
2023-03-11T22:32:29.145Z,66.12
2023-03-11T22:34:55.723Z,67.05
2023-03-11T22:37:22.216Z,66.87
2023-03-11T22:39:48.845Z,66.68
2023-03-11T22:42:15.653Z,66.71
2023-03-11T22:44:42.221Z,67.22
2023-03-11T22:47:08.788Z,66.63
2023-03-11T22:49:35.338Z,66.79
2023-03-11T22:52:01.913Z,67.42
2023-03-11T22:54:28.544Z,66.87
2023-03-11T22:56:55.102Z,67.41
2023-03-11T22:59:21.674Z,67.13
2023-03-11T23:01:48.184Z,66.73
2023-03-11T23:04:14.884Z,67.23
2023-03-11T23:06:41.418Z,67.26
2023-03-11T23:09:07.980Z,66.85
2023-03-11T23:11:34.569Z,67.06
2023-03-11T23:14:01.170Z,66.69
2023-03-11T23:16:27.865Z,67.00
2023-03-11T23:18:55.848Z,66.12
2023-03-11T23:21:28.164Z,65.95
2023-03-11T23:23:55.101Z,65.94
2023-03-11T23:26:22.364Z,65.95
2023-03-11T23:28:51.185Z,66.38
2023-03-11T23:31:18.815Z,67.17
2023-03-11T23:33:45.622Z,66.71
2023-03-11T23:36:15.157Z,67.21
2023-03-11T23:38:41.818Z,66.76
2023-03-11T23:41:14.178Z,67.17
2023-03-11T23:43:41.173Z,66.45
2023-03-11T23:46:10.345Z,66.85
2023-03-11T23:48:38.059Z,67.18
2023-03-11T23:51:05.535Z,67.19
2023-03-11T23:53:32.897Z,67.00
2023-03-11T23:55:59.634Z,67.00
2023-03-11T23:58:26.252Z,66.74
